Time;durP1;ratioP1;P1;durP2;ratioP2;P2;SDS_P1;SDS_P2;PMS_P1;PMS_P2;Temp;Humidity;BMP_temperature;BMP_pressure;BME280_temperature;BME280_humidity;BME280_pressure;Samples;Min_cycle;Max_cycle;Signal;HPM_P1;HPM_P2
2021/03/25 00:01:56;;;;;;;46.67;28.23;;;5.90;94.90;;;;;;4412391;32;20529;-66
2021/03/25 00:04:23;;;;;;;44.07;28.60;;;6.00;95.10;;;;;;4413455;32;20181;-66
2021/03/25 00:06:53;;;;;;;46.83;28.37;;;6.00;95.10;;;;;;4405415;32;20159;-66
2021/03/25 00:09:26;;;;;;;51.97;27.13;;;6.00;95.10;;;;;;4410930;32;20164;-66
2021/03/25 00:11:53;;;;;;;56.83;30.27;;;6.10;95.00;;;;;;4407540;32;20156;-66
2021/03/25 00:14:20;;;;;;;47.47;28.20;;;6.20;94.90;;;;;;4414347;32;20230;-66
2021/03/25 00:16:47;;;;;;;46.63;28.63;;;6.30;94.80;;;;;;4411839;32;20701;-66
2021/03/25 00:19:14;;;;;;;51.43;29.70;;;6.30;94.50;;;;;;4414880;32;20250;-68
2021/03/25 00:21:43;;;;;;;55.10;30.30;;;6.30;94.60;;;;;;4408161;32;20180;-65
2021/03/25 00:24:12;;;;;;;53.80;31.00;;;6.40;94.60;;;;;;4413873;32;20222;-66
2021/03/25 00:26:38;;;;;;;48.17;30.30;;;6.40;94.40;;;;;;4407127;32;20275;-68
2021/03/25 00:29:05;;;;;;;52.20;30.77;;;6.40;94.50;;;;;;4415727;32;20204;-67
2021/03/25 00:31:31;;;;;;;48.47;30.30;;;6.50;94.70;;;;;;4416545;32;20163;-65
2021/03/25 00:33:58;;;;;;;53.27;30.07;;;6.50;94.20;;;;;;4410981;32;20164;-64
2021/03/25 00:36:25;;;;;;;51.87;30.77;;;6.50;94.40;;;;;;4412355;32;20222;-65
2021/03/25 00:38:54;;;;;;;49.33;30.13;;;6.50;94.60;;;;;;4417843;32;20171;-68
2021/03/25 00:41:22;;;;;;;52.93;31.73;;;6.50;94.30;;;;;;4412053;32;20205;-68
2021/03/25 00:43:48;;;;;;;54.77;32.37;;;6.50;94.20;;;;;;4416094;32;20600;-66
2021/03/25 00:46:14;;;;;;;54.10;32.13;;;6.60;94.30;;;;;;4417261;32;20159;-65
2021/03/25 00:48:41;;;;;;;53.57;32.80;;;6.50;94.40;;;;;;4417692;32;20186;-67
2021/03/25 00:51:08;;;;;;;57.10;33.77;;;6.60;94.60;;;;;;4408040;32;20217;-65
2021/03/25 00:53:37;;;;;;;53.97;32.23;;;6.60;94.60;;;;;;4408422;32;20175;-65
2021/03/25 00:56:05;;;;;;;61.50;35.03;;;6.70;94.70;;;;;;4413045;32;20553;-67
2021/03/25 00:58:32;;;;;;;56.57;34.97;;;6.70;94.60;;;;;;4415108;32;20910;-65
2021/03/25 01:00:59;;;;;;;60.13;37.27;;;6.80;94.40;;;;;;4406601;32;20562;-67
2021/03/25 01:03:27;;;;;;;63.83;37.63;;;6.80;94.40;;;;;;4409486;32;20168;-67
2021/03/25 01:05:54;;;;;;;65.10;38.33;;;6.80;94.20;;;;;;4417846;32;20714;-68
2021/03/25 01:08:22;;;;;;;62.77;37.07;;;6.80;94.30;;;;;;4410909;32;20233;-66
2021/03/25 01:10:53;;;;;;;69.03;38.37;;;6.90;94.50;;;;;;4407605;32;20223;-67
2021/03/25 01:13:24;;;;;;;67.57;38.97;;;6.90;94.40;;;;;;4410804;32;20198;-69
2021/03/25 01:15:51;;;;;;;63.27;38.60;;;7.00;94.30;;;;;;4411359;32;20214;-67
2021/03/25 01:18:18;;;;;;;62.90;36.07;;;7.10;94.20;;;;;;4418141;32;20618;-68
2021/03/25 01:20:48;;;;;;;54.23;35.13;;;7.10;93.90;;;;;;4420392;32;20595;-68
2021/03/25 01:23:15;;;;;;;59.07;32.17;;;7.10;93.90;;;;;;4414196;32;20520;-64
2021/03/25 01:25:43;;;;;;;58.10;33.37;;;7.10;93.90;;;;;;4406495;32;20480;-66
2021/03/25 01:28:13;;;;;;;48.83;31.53;;;7.10;93.70;;;;;;4406943;32;20611;-67
2021/03/25 01:30:40;;;;;;;60.53;32.80;;;7.10;93.60;;;;;;4413202;32;20592;-66
2021/03/25 01:33:10;;;;;;;57.33;33.47;;;7.10;93.70;;;;;;4416867;32;20219;-65
2021/03/25 01:35:38;;;;;;;59.77;32.97;;;7.10;93.60;;;;;;4419587;32;20167;-65
2021/03/25 01:38:06;;;;;;;64.57;34.63;;;7.20;93.80;;;;;;4413450;32;20194;-65
2021/03/25 01:40:35;;;;;;;53.73;32.97;;;7.30;93.80;;;;;;4419239;32;20175;-66
2021/03/25 01:43:15;;;;;;;55.90;31.93;;;7.10;93.80;;;;;;4416840;32;20220;-65
2021/03/25 01:45:47;;;;;;;51.60;31.70;;;7.10;94.00;;;;;;4417318;32;20185;-64
2021/03/25 01:48:15;;;;;;;52.30;32.63;;;7.10;94.00;;;;;;4419144;32;20228;-68
2021/03/25 01:50:41;;;;;;;55.27;33.60;;;7.10;94.10;;;;;;4409300;32;20156;-68
2021/03/25 01:53:53;;;;;;;55.47;33.20;;;7.00;94.40;;;;;;4407469;32;20245;-66
2021/03/25 01:56:42;;;;;;;48.60;31.00;;;7.00;94.10;;;;;;4357570;32;20255;-67
2021/03/25 01:59:42;;;;;;;61.60;34.63;;;6.90;94.10;;;;;;4356038;33;20371;-68
2021/03/25 02:02:15;;;;;;;57.73;33.50;;;6.80;94.50;;;;;;4293539;33;20668;-65
2021/03/25 02:04:59;;;;;;;57.43;35.57;;;6.60;94.60;;;;;;4294569;33;20169;-67
2021/03/25 02:07:37;;;;;;;56.30;34.20;;;6.50;94.80;;;;;;4295425;33;20189;-67
2021/03/25 02:10:09;;;;;;;60.17;34.40;;;6.40;94.80;;;;;;4292085;33;20661;-65
2021/03/25 02:12:42;;;;;;;59.73;35.87;;;6.30;94.90;;;;;;4293841;33;20277;-64
2021/03/25 02:15:22;;;;;;;58.50;34.37;;;6.20;95.20;;;;;;4287560;33;20174;-65
2021/03/25 02:17:55;;;;;;;63.10;35.17;;;6.10;95.20;;;;;;4291287;33;20169;-66
2021/03/25 02:20:47;;;;;;;61.87;34.30;;;6.00;95.40;;;;;;4298240;33;20670;-65
2021/03/25 02:23:49;;;;;;;59.57;33.20;;;6.00;95.50;;;;;;4287599;33;20257;-65
2021/03/25 02:26:22;;;;;;;62.10;35.43;;;5.90;95.70;;;;;;4295023;33;20173;-68
2021/03/25 02:29:08;;;;;;;62.17;35.33;;;5.80;95.70;;;;;;4291593;33;20242;-65
2021/03/25 02:31:39;;;;;;;62.43;32.97;;;5.70;95.80;;;;;;4355665;33;20187;-64
2021/03/25 02:34:09;;;;;;;56.73;34.70;;;5.60;95.80;;;;;;4343958;33;20188;-63
2021/03/25 02:36:41;;;;;;;53.60;33.93;;;5.60;95.80;;;;;;4345746;33;20633;-65
2021/03/25 02:39:12;;;;;;;57.30;33.70;;;5.60;96.10;;;;;;4387642;32;20194;-67
2021/03/25 02:41:45;;;;;;;57.90;34.10;;;5.50;96.30;;;;;;4409046;32;20163;-67
2021/03/25 02:44:14;;;;;;;61.90;34.93;;;5.50;96.30;;;;;;4409572;32;20174;-67
2021/03/25 02:46:45;;;;;;;61.13;34.83;;;5.50;96.40;;;;;;4413283;32;20506;-65
2021/03/25 02:49:15;;;;;;;55.13;34.40;;;5.50;96.40;;;;;;4416799;32;20233;-67
2021/03/25 02:51:47;;;;;;;60.07;35.20;;;5.50;96.30;;;;;;4409675;32;20151;-66
2021/03/25 02:54:13;;;;;;;56.47;33.13;;;5.40;96.40;;;;;;4408191;32;20211;-67
2021/03/25 02:56:47;;;;;;;60.73;33.93;;;5.40;96.40;;;;;;4415579;32;20220;-65
2021/03/25 02:59:17;;;;;;;55.97;34.77;;;5.40;96.50;;;;;;4406188;32;20195;-65
2021/03/25 03:01:48;;;;;;;62.33;33.43;;;5.30;96.60;;;;;;4415335;32;20183;-68
2021/03/25 03:04:21;;;;;;;61.40;34.27;;;5.40;96.70;;;;;;4417036;32;20242;-63
2021/03/25 03:06:50;;;;;;;56.27;32.57;;;5.30;96.70;;;;;;4421075;32;20243;-66
2021/03/25 03:09:21;;;;;;;58.80;33.43;;;5.30;96.60;;;;;;4420325;32;20202;-64
2021/03/25 03:11:52;;;;;;;64.00;34.23;;;5.30;96.70;;;;;;4417776;32;20211;-66
2021/03/25 03:14:26;;;;;;;61.03;36.00;;;5.30;96.70;;;;;;4419539;32;20163;-68
2021/03/25 03:16:58;;;;;;;58.77;35.27;;;5.30;96.70;;;;;;4415476;32;20161;-66
2021/03/25 03:19:30;;;;;;;56.70;33.93;;;5.40;96.70;;;;;;4410797;32;20155;-65
2021/03/25 03:21:59;;;;;;;64.27;34.93;;;5.50;96.70;;;;;;4419027;32;20157;-68
2021/03/25 03:24:26;;;;;;;65.30;35.17;;;5.50;96.50;;;;;;4419132;32;20163;-66
2021/03/25 03:26:58;;;;;;;59.93;34.67;;;5.70;96.40;;;;;;4408784;32;20609;-66
2021/03/25 03:29:26;;;;;;;60.33;32.63;;;5.70;96.30;;;;;;4417279;32;20215;-65
2021/03/25 03:31:59;;;;;;;54.43;32.87;;;5.90;96.00;;;;;;4419114;32;20223;-66
2021/03/25 03:34:33;;;;;;;54.73;32.13;;;6.00;96.20;;;;;;4418559;32;20515;-65
2021/03/25 03:37:08;;;;;;;61.53;34.47;;;6.00;95.70;;;;;;4407844;32;20221;-67
2021/03/25 03:39:35;;;;;;;61.10;34.97;;;6.00;95.60;;;;;;4405488;32;20206;-67
2021/03/25 03:42:07;;;;;;;59.37;35.23;;;6.10;95.70;;;;;;4407471;32;20211;-64
2021/03/25 03:44:40;;;;;;;62.70;36.60;;;6.10;95.50;;;;;;4417506;32;20179;-66
2021/03/25 03:47:09;;;;;;;60.10;35.93;;;6.20;95.60;;;;;;4418864;32;20175;-64
2021/03/25 03:49:43;;;;;;;66.77;37.03;;;6.20;95.40;;;;;;4411266;32;20280;-67
2021/03/25 03:52:13;;;;;;;61.10;37.03;;;6.30;95.60;;;;;;4415279;32;20217;-65
2021/03/25 03:54:40;;;;;;;67.33;37.17;;;6.30;95.50;;;;;;4419444;32;20155;-67
2021/03/25 03:57:14;;;;;;;65.67;36.20;;;6.40;95.40;;;;;;4419118;32;20193;-66
2021/03/25 03:59:48;;;;;;;66.70;38.67;;;6.50;95.40;;;;;;4413308;32;20178;-68
2021/03/25 04:02:23;;;;;;;67.50;38.13;;;6.50;95.30;;;;;;4420504;32;20679;-65
2021/03/25 04:04:56;;;;;;;69.80;39.90;;;6.60;95.30;;;;;;4412278;32;20596;-69
2021/03/25 04:07:27;;;;;;;74.27;42.17;;;6.60;95.20;;;;;;4405248;32;20182;-64
2021/03/25 04:10:02;;;;;;;79.97;44.97;;;6.60;95.10;;;;;;4405442;32;20186;-65
2021/03/25 04:12:34;;;;;;;79.93;44.80;;;6.60;95.20;;;;;;4409113;32;20644;-66
2021/03/25 04:15:09;;;;;;;77.73;43.20;;;6.70;95.40;;;;;;4416682;32;20156;-65
2021/03/25 04:17:40;;;;;;;78.17;45.57;;;6.80;95.30;;;;;;4419390;32;20216;-64
2021/03/25 04:20:10;;;;;;;80.90;44.10;;;6.80;95.20;;;;;;4416011;32;20171;-68
2021/03/25 04:22:43;;;;;;;79.30;44.67;;;6.80;95.10;;;;;;4404977;32;20582;-67
2021/03/25 04:25:16;;;;;;;88.83;45.53;;;6.80;95.20;;;;;;4406852;32;20175;-68
2021/03/25 04:27:46;;;;;;;80.80;45.77;;;6.90;95.20;;;;;;4420186;32;20147;-65
2021/03/25 04:30:16;;;;;;;83.23;44.57;;;6.90;95.20;;;;;;4414980;32;20269;-66
2021/03/25 04:32:44;;;;;;;86.73;44.40;;;6.80;95.10;;;;;;4406345;32;20591;-66
2021/03/25 04:35:12;;;;;;;80.07;46.13;;;6.90;95.20;;;;;;4410073;32;20219;-68
2021/03/25 04:37:42;;;;;;;80.13;45.70;;;6.90;95.20;;;;;;4420156;32;20175;-68
2021/03/25 04:40:12;;;;;;;86.63;47.83;;;6.90;95.00;;;;;;4417712;32;20205;-68
2021/03/25 04:42:41;;;;;;;75.93;45.03;;;6.90;95.00;;;;;;4414190;32;20176;-65
2021/03/25 04:45:17;;;;;;;70.40;41.90;;;6.90;95.10;;;;;;4423326;32;20615;-67
2021/03/25 04:47:47;;;;;;;84.47;45.20;;;7.00;95.00;;;;;;4417832;32;20193;-65
2021/03/25 04:50:19;;;;;;;82.17;44.00;;;7.00;95.00;;;;;;4407973;32;20151;-67
2021/03/25 04:52:46;;;;;;;80.50;44.47;;;7.00;94.90;;;;;;4419864;32;20197;-65
2021/03/25 04:55:19;;;;;;;77.97;43.40;;;7.10;95.00;;;;;;4408189;32;20159;-67
2021/03/25 04:57:51;;;;;;;82.97;43.53;;;7.10;95.00;;;;;;4412803;32;20167;-65
2021/03/25 05:00:22;;;;;;;77.73;44.50;;;7.10;94.90;;;;;;4407555;32;20206;-65
2021/03/25 05:02:49;;;;;;;82.10;44.23;;;7.10;94.90;;;;;;4413720;32;20179;-65
2021/03/25 05:05:18;;;;;;;83.97;45.30;;;7.10;94.80;;;;;;4413809;32;20182;-65
2021/03/25 05:07:49;;;;;;;84.13;46.87;;;7.10;94.90;;;;;;4411227;32;20203;-66
2021/03/25 05:10:19;;;;;;;82.30;45.73;;;7.00;95.00;;;;;;4413837;32;20213;-63
2021/03/25 05:12:45;;;;;;;84.73;46.20;;;7.00;95.10;;;;;;4413297;32;20160;-66
2021/03/25 05:15:14;;;;;;;81.33;46.23;;;7.10;95.10;;;;;;4416830;32;20192;-69
2021/03/25 05:17:51;;;;;;;85.87;48.27;;;7.10;95.10;;;;;;4418007;32;20511;-66
2021/03/25 05:20:22;;;;;;;82.33;45.30;;;7.10;95.20;;;;;;4409057;32;20520;-67
2021/03/25 05:23:01;;;;;;;83.53;48.27;;;7.00;95.30;;;;;;4413437;32;20155;-64
2021/03/25 05:25:35;;;;;;;91.80;47.90;;;7.00;95.30;;;;;;4413384;32;20194;-65
2021/03/25 05:28:07;;;;;;;83.13;46.30;;;7.00;95.40;;;;;;4407399;32;20221;-69
2021/03/25 05:30:37;;;;;;;84.57;48.03;;;7.00;95.50;;;;;;4421408;32;20175;-65
2021/03/25 05:33:08;;;;;;;88.03;48.87;;;7.00;95.50;;;;;;4417844;32;20160;-66
2021/03/25 05:35:38;;;;;;;88.87;49.60;;;7.00;95.50;;;;;;4411278;32;20175;-68
2021/03/25 05:38:04;;;;;;;81.93;48.03;;;7.00;95.60;;;;;;4416181;32;20477;-68
2021/03/25 05:40:41;;;;;;;85.30;46.60;;;7.00;95.60;;;;;;4413745;32;20276;-67
2021/03/25 05:43:41;;;;;;;89.87;47.60;;;7.10;95.70;;;;;;4409441;32;20195;-65
2021/03/25 05:46:17;;;;;;;91.63;47.97;;;7.10;95.70;;;;;;4406603;32;20226;-66
2021/03/25 05:49:02;;;;;;;94.17;51.93;;;7.10;95.60;;;;;;4415863;32;20557;-66
2021/03/25 05:51:38;;;;;;;88.83;49.63;;;7.00;95.60;;;;;;4407121;32;20151;-67
2021/03/25 05:54:19;;;;;;;87.10;49.80;;;6.90;95.80;;;;;;4417626;32;20614;-65
2021/03/25 05:57:00;;;;;;;87.90;47.20;;;6.80;95.90;;;;;;4420742;32;20483;-68
2021/03/25 05:59:32;;;;;;;89.47;49.10;;;6.80;96.00;;;;;;4411274;32;20243;-69
2021/03/25 06:02:04;;;;;;;91.70;49.50;;;6.70;96.30;;;;;;4417722;32;20222;-66
2021/03/25 06:04:36;;;;;;;96.17;50.93;;;6.70;96.40;;;;;;4412525;32;20280;-66
2021/03/25 06:07:11;;;;;;;90.17;49.93;;;6.80;96.60;;;;;;4415859;32;20458;-65
2021/03/25 06:09:51;;;;;;;99.87;50.13;;;6.90;96.60;;;;;;4411998;32;20212;-67
2021/03/25 06:12:29;;;;;;;92.43;49.97;;;7.00;96.40;;;;;;4411550;32;20182;-67
2021/03/25 06:15:10;;;;;;;101.40;51.77;;;7.10;96.40;;;;;;4410481;32;20179;-65
2021/03/25 06:17:49;;;;;;;90.37;49.30;;;7.30;96.30;;;;;;4413426;32;20482;-67
2021/03/25 06:20:41;;;;;;;83.93;50.30;;;7.60;96.10;;;;;;4407334;32;20185;-66
2021/03/25 06:23:31;;;;;;;94.83;49.23;;;7.90;95.60;;;;;;4408445;32;20206;-67
2021/03/25 06:26:10;;;;;;;87.23;48.47;;;8.00;95.20;;;;;;4410471;32;20173;-67
2021/03/25 06:28:41;;;;;;;85.07;47.67;;;8.00;95.00;;;;;;4411597;32;20148;-65
2021/03/25 06:31:17;;;;;;;89.67;47.53;;;7.90;94.90;;;;;;4413309;32;20321;-64
2021/03/25 06:33:50;;;;;;;88.77;49.00;;;7.70;95.10;;;;;;4408995;32;20177;-63
2021/03/25 06:36:21;;;;;;;97.67;48.67;;;7.60;95.30;;;;;;4413865;32;20148;-66
2021/03/25 06:38:52;;;;;;;93.57;50.10;;;7.60;95.50;;;;;;4412299;32;20170;-67
2021/03/25 06:41:29;;;;;;;92.43;48.83;;;8.00;95.60;;;;;;4412749;32;20186;-66
2021/03/25 06:44:03;;;;;;;89.63;47.83;;;8.40;95.00;;;;;;4413730;32;20606;-67
2021/03/25 06:46:35;;;;;;;88.57;48.17;;;8.90;94.10;;;;;;4414651;32;20155;-67
2021/03/25 06:49:07;;;;;;;84.30;47.03;;;9.00;93.50;;;;;;4412465;32;20235;-66
2021/03/25 06:51:36;;;;;;;84.60;46.60;;;9.30;93.40;;;;;;4414394;32;20148;-66
2021/03/25 06:54:09;;;;;;;77.30;45.50;;;9.60;92.90;;;;;;4412515;32;20182;-66
2021/03/25 06:56:38;;;;;;;85.00;46.13;;;9.90;92.40;;;;;;4410467;32;20151;-68
2021/03/25 06:59:09;;;;;;;82.70;47.50;;;10.00;91.80;;;;;;4413071;32;20504;-68
2021/03/25 07:01:41;;;;;;;74.73;43.10;;;9.90;91.80;;;;;;4413321;32;20152;-67
2021/03/25 07:04:14;;;;;;;80.60;44.47;;;9.90;91.90;;;;;;4412046;32;20503;-66
2021/03/25 07:06:41;;;;;;;72.37;43.13;;;10.10;91.70;;;;;;4410869;32;20457;-66
2021/03/25 07:09:09;;;;;;;81.87;45.07;;;10.40;91.50;;;;;;4414952;32;20663;-67
2021/03/25 07:11:37;;;;;;;75.30;43.17;;;10.60;91.10;;;;;;4410051;32;20164;-68
2021/03/25 07:14:07;;;;;;;76.23;43.93;;;10.70;90.80;;;;;;4412725;32;20299;-65
2021/03/25 07:16:39;;;;;;;77.20;45.83;;;11.00;90.80;;;;;;4411082;32;20522;-67
2021/03/25 07:19:11;;;;;;;81.37;44.80;;;11.40;90.20;;;;;;4409102;32;20163;-67
2021/03/25 07:21:40;;;;;;;67.73;43.13;;;11.70;88.20;;;;;;4414211;32;20498;-67
2021/03/25 07:24:11;;;;;;;75.50;43.43;;;11.90;88.40;;;;;;4412909;32;20161;-68
2021/03/25 07:26:42;;;;;;;73.00;42.70;;;11.90;87.80;;;;;;4412390;32;20493;-67
2021/03/25 07:29:26;;;;;;;78.63;43.00;;;12.00;88.00;;;;;;4414449;32;20174;-68
2021/03/25 07:31:57;;;;;;;75.73;44.00;;;11.90;88.30;;;;;;4409891;32;20220;-67
2021/03/25 07:34:37;;;;;;;75.17;43.30;;;11.80;88.30;;;;;;4407632;32;20196;-67
2021/03/25 07:37:09;;;;;;;67.87;41.97;;;12.00;88.60;;;;;;4412734;32;20223;-67
2021/03/25 07:39:39;;;;;;;69.97;43.23;;;12.30;87.30;;;;;;4412322;32;20570;-69
2021/03/25 07:42:06;;;;;;;77.40;45.17;;;12.30;86.60;;;;;;4410503;32;20150;-65
2021/03/25 07:44:37;;;;;;;73.63;41.20;;;11.80;88.00;;;;;;4414510;32;20177;-66
2021/03/25 07:47:06;;;;;;;76.50;43.33;;;11.50;89.40;;;;;;4421497;32;20615;-67
2021/03/25 07:49:34;;;;;;;78.13;42.60;;;11.60;89.70;;;;;;4405711;32;20164;-67
2021/03/25 07:52:05;;;;;;;69.40;42.60;;;11.80;89.50;;;;;;4416149;32;20155;-65
2021/03/25 07:54:33;;;;;;;74.43;43.43;;;11.80;89.40;;;;;;4418570;32;20250;-65
2021/03/25 07:57:07;;;;;;;71.07;40.87;;;11.70;90.00;;;;;;4419081;32;20200;-66
2021/03/25 07:59:38;;;;;;;75.73;41.97;;;12.30;88.80;;;;;;4410278;32;20167;-66
2021/03/25 08:02:19;;;;;;;65.30;41.57;;;13.00;86.60;;;;;;4414380;32;20169;-67
2021/03/25 08:04:45;;;;;;;67.70;39.83;;;13.60;84.60;;;;;;4405189;32;20262;-68
2021/03/25 08:07:13;;;;;;;63.83;40.53;;;14.00;81.80;;;;;;4405301;32;20257;-65
2021/03/25 08:09:50;;;;;;;66.97;40.97;;;13.90;82.40;;;;;;4412487;32;20219;-66
2021/03/25 08:12:30;;;;;;;61.30;39.57;;;14.20;81.50;;;;;;4415688;32;20178;-68
2021/03/25 08:15:22;;;;;;;66.47;40.53;;;14.20;81.70;;;;;;4406529;32;20247;-69
2021/03/25 08:18:07;;;;;;;66.73;40.60;;;14.50;80.80;;;;;;4408710;32;20191;-66
2021/03/25 08:20:39;;;;;;;65.77;38.90;;;14.40;80.60;;;;;;4412761;32;20155;-67
2021/03/25 08:23:31;;;;;;;63.33;38.00;;;14.20;81.00;;;;;;4419669;32;20170;-67
2021/03/25 08:26:04;;;;;;;67.67;38.90;;;13.80;82.40;;;;;;4420581;32;20295;-68
2021/03/25 08:28:55;;;;;;;68.30;38.73;;;13.20;84.30;;;;;;4415025;32;20152;-68
2021/03/25 08:31:39;;;;;;;67.43;39.33;;;12.70;86.10;;;;;;4405583;32;20539;-67
2021/03/25 08:34:28;;;;;;;61.13;38.47;;;12.50;87.40;;;;;;4415778;32;20226;-67
2021/03/25 08:37:07;;;;;;;67.50;41.03;;;12.60;87.40;;;;;;4350686;32;20157;-67
2021/03/25 08:39:41;;;;;;;67.53;39.20;;;12.70;87.60;;;;;;4354536;33;20179;-68
2021/03/25 08:42:18;;;;;;;63.37;39.60;;;12.90;86.60;;;;;;4359143;33;20210;-69
2021/03/25 08:44:52;;;;;;;67.80;38.67;;;13.40;85.80;;;;;;4358774;33;20179;-67
2021/03/25 08:47:24;;;;;;;62.73;38.93;;;14.00;83.90;;;;;;4358821;33;20183;-66
2021/03/25 08:50:02;;;;;;;66.67;38.27;;;14.00;83.00;;;;;;4357199;33;20161;-68
2021/03/25 08:52:33;;;;;;;59.87;36.67;;;13.80;83.20;;;;;;4357710;33;20482;-66
2021/03/25 08:55:16;;;;;;;56.60;36.10;;;14.00;82.70;;;;;;4344554;33;20153;-67
2021/03/25 08:57:44;;;;;;;55.57;35.33;;;13.90;82.90;;;;;;4349980;33;20165;-66
2021/03/25 09:00:16;;;;;;;62.83;37.13;;;13.50;83.70;;;;;;4357264;33;20644;-66
2021/03/25 09:02:48;;;;;;;57.77;36.33;;;13.30;84.80;;;;;;4358574;33;20160;-66
2021/03/25 09:05:23;;;;;;;58.37;38.07;;;13.20;85.60;;;;;;4355053;32;20165;-66
2021/03/25 09:07:51;;;;;;;61.17;37.47;;;13.10;85.40;;;;;;4353354;33;20258;-69
2021/03/25 09:10:35;;;;;;;61.77;36.30;;;13.00;86.10;;;;;;4356995;33;20247;-66
2021/03/25 09:13:05;;;;;;;56.33;33.67;;;12.80;86.50;;;;;;4349539;32;20244;-67
2021/03/25 09:15:35;;;;;;;57.93;34.37;;;12.90;86.60;;;;;;4378000;32;20234;-68
2021/03/25 09:18:07;;;;;;;55.10;34.70;;;12.80;87.10;;;;;;4380884;32;20232;-66
2021/03/25 09:20:37;;;;;;;54.23;33.80;;;12.70;87.10;;;;;;4379969;32;20611;-68
2021/03/25 09:23:37;;;;;;;55.03;33.93;;;12.60;87.90;;;;;;4378060;32;20510;-69
2021/03/25 09:26:49;;;;;;;55.13;34.33;;;12.70;87.90;;;;;;4381982;32;20672;-67
2021/03/25 09:29:17;;;;;;;58.23;34.80;;;12.90;87.50;;;;;;4351330;32;20247;-67
2021/03/25 09:32:19;;;;;;;52.83;33.33;;;13.10;87.40;;;;;;4348854;32;20611;-69
2021/03/25 09:34:51;;;;;;;51.77;33.37;;;13.50;85.80;;;;;;4349168;32;20191;-67
2021/03/25 09:37:20;;;;;;;53.33;32.97;;;13.90;83.90;;;;;;4348595;33;20157;-67
2021/03/25 09:40:07;;;;;;;56.07;33.50;;;13.80;83.60;;;;;;4349259;32;20226;-66
2021/03/25 09:42:34;;;;;;;51.23;31.90;;;13.50;84.20;;;;;;4350963;32;20223;-67
2021/03/25 09:48:27;;;;;;;55.67;33.60;;;13.20;86.00;;;;;;4345168;32;20175;-68
2021/03/25 09:51:03;;;;;;;52.73;33.40;;;12.80;87.20;;;;;;4351432;32;20160;-67
2021/03/25 09:53:46;;;;;;;55.20;35.57;;;12.60;88.10;;;;;;4350947;32;20694;-68
2021/03/25 09:56:30;;;;;;;50.93;33.33;;;12.50;88.40;;;;;;4351204;33;20166;-68
2021/03/25 09:58:58;;;;;;;56.10;35.53;;;12.70;88.40;;;;;;4348419;33;20696;-68
2021/03/25 10:01:44;;;;;;;58.70;34.20;;;12.60;88.70;;;;;;4350231;32;20171;-69
2021/03/25 10:04:32;;;;;;;52.33;34.93;;;12.70;88.50;;;;;;4353692;33;20183;-68
2021/03/25 10:07:35;;;;;;;57.27;34.70;;;12.60;88.40;;;;;;4382097;32;20601;-67
2021/03/25 10:10:34;;;;;;;51.30;34.30;;;12.40;89.40;;;;;;4352784;32;20242;-68
2021/03/25 10:13:35;;;;;;;51.77;31.33;;;12.00;90.40;;;;;;4351356;32;20164;-68
2021/03/25 10:16:03;;;;;;;56.57;32.33;;;12.00;90.70;;;;;;4339662;33;20382;-67
2021/03/25 10:18:59;;;;;;;49.07;32.53;;;12.00;90.70;;;;;;4352568;32;20177;-68
2021/03/25 10:22:04;;;;;;;51.03;32.23;;;11.90;91.00;;;;;;4354023;33;20191;-66
2021/03/25 10:24:42;;;;;;;56.93;29.80;;;11.80;91.20;;;;;;4355847;32;20169;-67
2021/03/25 10:27:45;;;;;;;47.73;29.37;;;11.70;91.60;;;;;;4354887;32;20223;-67
2021/03/25 10:30:29;;;;;;;46.83;29.67;;;11.80;91.70;;;;;;4311802;33;20171;-67
2021/03/25 10:32:58;;;;;;;45.97;29.33;;;11.80;91.90;;;;;;4305427;33;20199;-68
2021/03/25 10:35:29;;;;;;;48.00;29.10;;;11.60;92.90;;;;;;4299142;33;20175;-67
2021/03/25 10:37:59;;;;;;;55.67;31.20;;;11.10;94.10;;;;;;4309677;33;20298;-68
2021/03/25 10:40:30;;;;;;;47.83;30.40;;;11.00;94.90;;;;;;4307283;33;20193;-66
2021/03/25 10:43:00;;;;;;;41.33;27.43;;;11.00;95.20;;;;;;4310652;33;20220;-66
2021/03/25 10:45:32;;;;;;;34.60;24.60;;;11.00;95.20;;;;;;4311155;33;20763;-67
2021/03/25 10:48:04;;;;;;;28.77;19.20;;;11.10;95.20;;;;;;4348392;33;20209;-67
2021/03/25 10:50:38;;;;;;;22.73;16.77;;;10.90;95.70;;;;;;4354261;32;20183;-67
2021/03/25 10:53:08;;;;;;;24.43;16.23;;;10.90;95.80;;;;;;4356789;32;20174;-67
2021/03/25 10:55:42;;;;;;;22.27;15.37;;;11.10;95.70;;;;;;4355743;32;20238;-67
2021/03/25 10:58:20;;;;;;;20.33;15.00;;;11.20;95.50;;;;;;4355568;32;20315;-68
2021/03/25 11:00:47;;;;;;;21.50;15.90;;;11.20;95.20;;;;;;4355583;32;20165;-68
2021/03/25 11:03:27;;;;;;;27.93;18.07;;;11.10;95.30;;;;;;4359243;32;20219;-66
2021/03/25 11:05:56;;;;;;;24.73;17.97;;;11.10;95.80;;;;;;4362599;32;20527;-68
2021/03/25 11:08:31;;;;;;;29.40;19.50;;;11.40;95.60;;;;;;4392906;32;20535;-68
2021/03/25 11:11:01;;;;;;;23.70;17.80;;;11.60;95.10;;;;;;4387479;32;20225;-67
2021/03/25 11:13:28;;;;;;;21.90;15.40;;;11.70;94.60;;;;;;4394838;32;20209;-68
2021/03/25 11:16:00;;;;;;;20.43;15.27;;;11.70;94.00;;;;;;4387317;32;20194;-69
2021/03/25 11:18:33;;;;;;;23.07;15.60;;;11.60;94.00;;;;;;4391412;32;20250;-67
2021/03/25 11:21:01;;;;;;;22.07;16.43;;;11.50;94.40;;;;;;4389381;32;20162;-68
2021/03/25 11:23:29;;;;;;;23.97;16.70;;;11.40;94.50;;;;;;4391966;32;20152;-66
2021/03/25 11:25:59;;;;;;;27.93;18.20;;;11.30;94.50;;;;;;4389843;32;20218;-67
2021/03/25 11:28:27;;;;;;;27.77;19.60;;;11.20;94.80;;;;;;4390477;32;20232;-67
2021/03/25 11:31:15;;;;;;;37.00;23.10;;;11.10;94.90;;;;;;4387264;32;20163;-69
2021/03/25 11:33:42;;;;;;;33.90;21.67;;;10.80;95.30;;;;;;4389736;32;20175;-67
2021/03/25 11:36:09;;;;;;;40.77;24.60;;;10.80;95.40;;;;;;4391593;32;20228;-66
2021/03/25 11:38:38;;;;;;;40.23;25.83;;;10.70;95.60;;;;;;4388117;32;20170;-68
2021/03/25 11:41:08;;;;;;;39.47;23.67;;;10.80;95.70;;;;;;4390878;32;20585;-67
2021/03/25 11:43:45;;;;;;;36.20;23.67;;;10.90;95.40;;;;;;4387771;32;20219;-67
2021/03/25 11:46:25;;;;;;;36.77;22.67;;;11.10;95.20;;;;;;4388749;32;20179;-66
2021/03/25 11:49:05;;;;;;;37.20;23.57;;;11.10;95.00;;;;;;4391468;32;20158;-68
2021/03/25 11:51:34;;;;;;;34.60;22.87;;;11.20;94.80;;;;;;4410366;32;20154;-67
2021/03/25 11:54:03;;;;;;;36.90;22.80;;;11.10;94.40;;;;;;4406489;32;20163;-69
2021/03/25 11:56:35;;;;;;;39.00;24.17;;;11.20;94.40;;;;;;4415997;32;20221;-67
2021/03/25 11:59:06;;;;;;;44.67;26.33;;;10.90;94.70;;;;;;4408530;32;20163;-67
2021/03/25 12:01:34;;;;;;;51.40;28.10;;;10.90;94.70;;;;;;4410226;32;20223;-68
2021/03/25 12:04:02;;;;;;;52.93;27.53;;;10.80;94.80;;;;;;4407497;32;20224;-67
2021/03/25 12:06:30;;;;;;;50.30;27.50;;;10.60;94.90;;;;;;4412369;32;20216;-67
2021/03/25 12:09:09;;;;;;;47.03;26.93;;;10.60;95.10;;;;;;4410305;32;20213;-68
2021/03/25 12:11:37;;;;;;;52.43;27.77;;;10.70;95.00;;;;;;4412127;32;20181;-68
2021/03/25 12:14:04;;;;;;;50.50;25.70;;;11.00;94.60;;;;;;4410007;32;20178;-69
2021/03/25 12:16:32;;;;;;;51.57;27.27;;;11.40;94.20;;;;;;4405946;32;20256;-67
2021/03/25 12:18:59;;;;;;;45.87;25.17;;;11.90;93.20;;;;;;4408245;32;20191;-68
2021/03/25 12:21:26;;;;;;;45.70;27.40;;;12.10;91.90;;;;;;4408217;32;20227;-70
2021/03/25 12:23:56;;;;;;;42.33;25.30;;;12.20;92.10;;;;;;4409001;32;20214;-68
2021/03/25 12:26:22;;;;;;;42.90;23.77;;;12.40;91.50;;;;;;4408601;32;20167;-68
2021/03/25 12:28:50;;;;;;;39.33;23.37;;;12.60;91.30;;;;;;4408056;32;20215;-70
2021/03/25 12:31:17;;;;;;;45.50;23.77;;;12.90;90.60;;;;;;4408078;32;20174;-67
2021/03/25 12:33:44;;;;;;;39.10;23.00;;;12.90;90.10;;;;;;4410054;32;20152;-68
2021/03/25 12:36:12;;;;;;;36.10;21.77;;;13.00;90.00;;;;;;4407683;32;20289;-68
2021/03/25 12:38:39;;;;;;;34.13;20.40;;;12.90;89.20;;;;;;4400209;32;20196;-66
2021/03/25 12:41:06;;;;;;;30.47;19.67;;;12.90;88.10;;;;;;4410443;32;20234;-69
2021/03/25 12:43:33;;;;;;;32.93;20.10;;;13.30;87.70;;;;;;4409714;32;20178;-68
2021/03/25 12:46:06;;;;;;;31.10;19.27;;;13.40;86.60;;;;;;4410717;32;20190;-67
2021/03/25 12:48:33;;;;;;;28.67;19.93;;;13.60;86.00;;;;;;4410217;32;20175;-67
2021/03/25 12:51:01;;;;;;;32.87;20.60;;;13.70;84.40;;;;;;4407377;32;20250;-68
2021/03/25 12:53:29;;;;;;;30.03;19.80;;;13.80;85.20;;;;;;4408057;32;20218;-68
2021/03/25 12:55:57;;;;;;;29.73;20.40;;;13.60;84.30;;;;;;4410289;32;20175;-69
2021/03/25 12:58:33;;;;;;;32.77;19.87;;;13.70;85.00;;;;;;4408765;32;20262;-68
2021/03/25 13:01:06;;;;;;;29.57;19.33;;;13.50;84.90;;;;;;4409826;32;20195;-68
2021/03/25 13:03:34;;;;;;;31.93;20.63;;;13.20;84.50;;;;;;4413518;32;20527;-69
2021/03/25 13:06:03;;;;;;;27.13;19.83;;;13.20;84.90;;;;;;4410685;32;20163;-71
2021/03/25 13:08:30;;;;;;;29.07;18.93;;;13.60;83.70;;;;;;4411370;32;20163;-70